Captain Cook, HI (96704)

12:01 PM HST on December 06, 2016 (GMT -1000)
Halemalu | | Change Station

Elev 1656 ft 19.50 °N, 155.91 °W | Updated 1 second ago

Scattered Clouds
Scattered Clouds
78.8 °F
Feels Like 81 °F
N
1.0
Wind Variable Wind from NW
Gusts 4.0 mph

Today
High -- | Low -- °F
--% Chance of Precip.
Yesterday
High -- | Low -- °F
Precip. -- in
Pressure 29.91 in
Visibility 10.0 miles
Clouds Few 7000 ft
Scattered Clouds 10000 ft
Heat Index 81 °F
Dew Point 67 °F
Humidity 67%
Rainfall 0.00 in
Snow Depth Not available.
6:44 AM 5:45 PM
Waxing Crescent, 45% visible
METAR PHKO 062153Z 26007KT 10SM FEW070 SCT100 27/21 A2990 RMK AO2 SLP126 T02720211
Pressure 29.91 in
Visibility 10.0 miles
Clouds Few 7000 ft
Scattered Clouds 10000 ft
Heat Index 81 °F
Dew Point 67 °F
Humidity 67%
Rainfall 0.00 in
Snow Depth Not available.
6:44 AM 5:45 PM
Waxing Crescent, 45% visible
METAR PHKO 062153Z 26007KT 10SM FEW070 SCT100 27/21 A2990 RMK AO2 SLP126 T02720211

10-Day Weather Forecast

Almanac

Astronomy

Dec. 06, 2016 Rise Set
Actual Time
Civil Twilight
Nautical Twilight
Astronomical Twilight
Moon
Length of Visible Light
Length of Day
Tomorrow will be .
, % of the Moon is Illuminated

Today's Extremes

State Highs State Lows

Community

WunderPhotos

Upload Photos

1,956,037 photos uploaded!

WunderBlog® & News

Nearby

Air Quality

  Air Quality AQ Index Pollutant
Not available.

Snow Depth

Station Depth Elevation

Earthquake Activity

City Distance Mag. Time & Date
Minimum magnitude displayed is 2.5.

Coastal Water Temperatures

Place Temperature

Stations

Nearby Weather Stations

Station Location Temp. Windchill Dew Point Humidity Wind Precip. Elev Updated Type
                   

Watches & Warnings

There are currently no watches in effect.